Time;durP1;ratioP1;P1;durP2;ratioP2;P2;SDS_P1;SDS_P2;PMS_P1;PMS_P2;Temp;Humidity;BMP_temperature;BMP_pressure;BME280_temperature;BME280_humidity;BME280_pressure;Samples;Min_cycle;Max_cycle;Signal;HPM_P1;HPM_P2
2022/08/05 00:01:43;;;;;;;0.65;0.50;;;;;;;;;;10538008;28;20237;-75
2022/08/05 00:06:45;;;;;;;0.57;0.57;;;;;;;;;;10537962;28;20755;-76
2022/08/05 00:11:46;;;;;;;0.65;0.65;;;;;;;;;;10519799;28;20221;-75
2022/08/05 00:16:47;;;;;;;0.50;0.50;;;;;;;;;;10522626;28;20189;-76
2022/08/05 00:21:48;;;;;;;0.50;0.50;;;;;;;;;;10498613;28;20241;-76
2022/08/05 00:26:49;;;;;;;0.60;0.60;;;;;;;;;;10525367;28;20193;-75
2022/08/05 00:31:50;;;;;;;0.57;0.57;;;;;;;;;;10526701;28;20270;-75
2022/08/05 00:36:52;;;;;;;0.80;0.80;;;;;;;;;;10528923;28;20657;-75
2022/08/05 00:41:53;;;;;;;0.52;0.52;;;;;;;;;;10502459;28;20223;-74
2022/08/05 00:46:54;;;;;;;0.63;0.63;;;;;;;;;;10526582;28;20249;-74
2022/08/05 00:51:55;;;;;;;0.60;0.60;;;;;;;;;;10528894;28;20221;-74
2022/08/05 00:56:56;;;;;;;0.57;0.57;;;;;;;;;;10499955;28;20376;-75
2022/08/05 01:01:57;;;;;;;0.82;0.82;;;;;;;;;;10492916;28;20399;-75
2022/08/05 01:06:58;;;;;;;0.60;0.60;;;;;;;;;;10502581;28;20280;-74
2022/08/05 01:12:02;;;;;;;0.60;0.60;;;;;;;;;;10513773;28;20317;-75
2022/08/05 01:17:06;;;;;;;0.70;0.70;;;;;;;;;;10519096;28;20205;-75
2022/08/05 01:22:14;;;;;;;0.65;0.65;;;;;;;;;;10526734;28;20266;-75
2022/08/05 01:27:18;;;;;;;0.70;0.70;;;;;;;;;;10529261;28;20209;-75
2022/08/05 01:32:21;;;;;;;0.70;0.70;;;;;;;;;;10529923;28;20369;-75
2022/08/05 01:37:39;;;;;;;0.80;0.80;;;;;;;;;;10501773;28;20562;-76
2022/08/05 01:42:42;;;;;;;1.10;0.65;;;;;;;;;;10518469;28;20226;-74
2022/08/05 01:47:44;;;;;;;0.50;0.50;;;;;;;;;;10523086;28;20232;-73
2022/08/05 01:52:45;;;;;;;0.75;0.75;;;;;;;;;;10524140;28;20312;-74
2022/08/05 01:57:47;;;;;;;0.75;0.75;;;;;;;;;;10526199;28;20293;-75
2022/08/05 02:02:54;;;;;;;0.63;0.63;;;;;;;;;;10490286;28;20210;-74
2022/08/05 02:07:56;;;;;;;1.05;1.00;;;;;;;;;;10521238;28;20219;-75
2022/08/05 02:13:02;;;;;;;0.70;0.65;;;;;;;;;;10518061;28;20217;-74
2022/08/05 02:18:06;;;;;;;0.68;0.68;;;;;;;;;;10507714;28;20235;-75
2022/08/05 02:23:09;;;;;;;0.90;0.90;;;;;;;;;;10508492;28;20237;-74
2022/08/05 02:28:11;;;;;;;1.05;1.05;;;;;;;;;;10522648;28;20294;-74
2022/08/05 02:33:15;;;;;;;1.05;0.80;;;;;;;;;;10512146;28;20210;-76
2022/08/05 02:38:17;;;;;;;0.95;0.85;;;;;;;;;;10517940;28;20173;-75
2022/08/05 02:43:18;;;;;;;0.82;0.82;;;;;;;;;;10499764;28;20216;-75
2022/08/05 02:48:21;;;;;;;1.42;1.25;;;;;;;;;;10485635;28;20220;-74
2022/08/05 02:53:23;;;;;;;1.10;1.10;;;;;;;;;;10488477;28;20209;-73
2022/08/05 02:58:25;;;;;;;1.70;1.70;;;;;;;;;;10511522;28;20250;-73
2022/08/05 03:03:27;;;;;;;2.22;2.10;;;;;;;;;;10522567;28;20213;-75
2022/08/05 03:08:28;;;;;;;2.28;2.28;;;;;;;;;;10507265;28;20266;-73
2022/08/05 03:13:30;;;;;;;2.65;2.55;;;;;;;;;;10491670;28;20302;-72
2022/08/05 03:18:31;;;;;;;3.05;2.95;;;;;;;;;;10510192;28;20251;-72
2022/08/05 03:23:32;;;;;;;3.88;3.67;;;;;;;;;;10521216;28;20263;-74
2022/08/05 03:28:34;;;;;;;4.80;4.38;;;;;;;;;;10515019;28;20245;-73
2022/08/05 03:33:35;;;;;;;5.57;5.15;;;;;;;;;;10506488;28;20233;-74
2022/08/05 03:38:43;;;;;;;5.57;5.20;;;;;;;;;;10515977;28;20588;-73
2022/08/05 03:43:44;;;;;;;5.95;5.55;;;;;;;;;;10521966;28;20221;-72
2022/08/05 03:48:45;;;;;;;6.25;5.32;;;;;;;;;;10520202;28;20243;-72
2022/08/05 03:53:57;;;;;;;8.45;6.40;;;;;;;;;;10517965;28;20330;-72
2022/08/05 03:59:00;;;;;;;5.53;5.10;;;;;;;;;;10529892;28;20653;-70
2022/08/05 04:04:02;;;;;;;5.93;5.53;;;;;;;;;;10522248;28;20597;-72
2022/08/05 04:09:07;;;;;;;6.53;5.68;;;;;;;;;;10527617;28;20209;-72
2022/08/05 04:14:08;;;;;;;6.68;5.38;;;;;;;;;;10525562;28;20224;-72
2022/08/05 04:19:12;;;;;;;6.25;5.65;;;;;;;;;;10505083;28;20204;-74
2022/08/05 04:24:14;;;;;;;5.38;4.95;;;;;;;;;;10523361;28;20312;-72
2022/08/05 04:29:15;;;;;;;4.55;4.15;;;;;;;;;;10524270;28;20254;-71
2022/08/05 04:34:16;;;;;;;4.30;3.90;;;;;;;;;;10508056;28;20633;-71
2022/08/05 04:39:18;;;;;;;3.80;3.50;;;;;;;;;;10518029;28;20194;-72
2022/08/05 04:44:19;;;;;;;3.13;3.03;;;;;;;;;;10497262;28;20209;-73
2022/08/05 04:49:20;;;;;;;4.28;3.65;;;;;;;;;;10524964;28;20299;-72
2022/08/05 04:54:21;;;;;;;4.07;3.50;;;;;;;;;;10510283;28;20319;-71
2022/08/05 04:59:22;;;;;;;3.75;3.47;;;;;;;;;;10527959;28;20272;-72
2022/08/05 05:04:24;;;;;;;3.75;3.55;;;;;;;;;;10515046;28;20700;-74
2022/08/05 05:09:25;;;;;;;3.80;3.63;;;;;;;;;;10517785;28;20282;-74
2022/08/05 05:14:26;;;;;;;3.35;3.25;;;;;;;;;;10473673;28;20221;-72
2022/08/05 05:19:27;;;;;;;3.75;3.55;;;;;;;;;;10516100;28;20197;-73
2022/08/05 05:24:28;;;;;;;4.10;3.95;;;;;;;;;;10513680;28;20213;-72
2022/08/05 05:29:29;;;;;;;3.88;3.65;;;;;;;;;;10490088;28;20804;-72
2022/08/05 05:34:30;;;;;;;4.88;4.57;;;;;;;;;;10514114;28;21175;-71
2022/08/05 05:39:31;;;;;;;5.07;4.78;;;;;;;;;;10517645;28;20555;-72
2022/08/05 05:44:33;;;;;;;5.68;4.90;;;;;;;;;;10495249;28;20295;-74
2022/08/05 05:49:34;;;;;;;5.93;5.47;;;;;;;;;;10515865;28;20222;-73
2022/08/05 05:54:35;;;;;;;5.70;5.30;;;;;;;;;;10528077;28;20207;-73
2022/08/05 05:59:36;;;;;;;5.55;5.15;;;;;;;;;;10501471;28;20197;-73
2022/08/05 06:04:37;;;;;;;5.35;4.85;;;;;;;;;;10515812;28;20622;-74
2022/08/05 06:09:38;;;;;;;5.65;5.20;;;;;;;;;;10502650;28;20378;-72
2022/08/05 06:14:43;;;;;;;5.95;5.40;;;;;;;;;;10524826;28;20308;-72
2022/08/05 06:19:44;;;;;;;5.40;5.10;;;;;;;;;;10524954;28;20232;-73
2022/08/05 06:24:45;;;;;;;6.60;6.03;;;;;;;;;;10518561;28;20650;-73
2022/08/05 06:29:46;;;;;;;6.07;5.70;;;;;;;;;;10514680;28;20221;-73
2022/08/05 06:34:47;;;;;;;6.03;5.63;;;;;;;;;;10521539;28;20838;-73
2022/08/05 06:39:49;;;;;;;6.05;5.55;;;;;;;;;;10521902;28;20603;-72
2022/08/05 06:44:50;;;;;;;5.70;5.30;;;;;;;;;;10518613;28;20221;-72
2022/08/05 06:49:51;;;;;;;5.40;5.00;;;;;;;;;;10509528;28;20221;-73
2022/08/05 06:54:52;;;;;;;5.95;5.45;;;;;;;;;;10514099;28;20802;-73
2022/08/05 06:59:53;;;;;;;5.22;4.93;;;;;;;;;;10516454;28;20182;-72
2022/08/05 07:04:54;;;;;;;4.15;3.95;;;;;;;;;;10525391;28;20218;-72
2022/08/05 07:09:55;;;;;;;4.57;4.38;;;;;;;;;;10504766;28;20728;-73
2022/08/05 07:20:16;;;;;;;5.15;4.82;;;;;;;;;;10525449;28;20743;-73
2022/08/05 07:25:18;;;;;;;5.40;5.00;;;;;;;;;;10523353;28;20642;-75
2022/08/05 07:30:19;;;;;;;5.13;4.80;;;;;;;;;;10507128;28;20214;-74
2022/08/05 07:35:20;;;;;;;5.88;5.45;;;;;;;;;;10512622;28;20173;-74
2022/08/05 07:40:22;;;;;;;5.45;5.13;;;;;;;;;;10506434;28;20606;-74
2022/08/05 07:45:23;;;;;;;5.43;5.03;;;;;;;;;;10522259;28;20173;-74
2022/08/05 07:50:24;;;;;;;5.07;4.68;;;;;;;;;;10529929;28;20220;-74
2022/08/05 07:55:25;;;;;;;5.47;4.63;;;;;;;;;;10485161;28;20177;-74
2022/08/05 08:00:26;;;;;;;5.53;5.13;;;;;;;;;;10523046;28;20182;-73
2022/08/05 08:05:27;;;;;;;5.50;5.15;;;;;;;;;;10520410;28;20211;-74
2022/08/05 08:10:29;;;;;;;6.00;5.47;;;;;;;;;;10495440;28;20189;-74
2022/08/05 08:15:30;;;;;;;5.05;4.75;;;;;;;;;;10492468;28;20228;-74
2022/08/05 08:20:31;;;;;;;4.35;4.15;;;;;;;;;;10494328;28;20236;-74
2022/08/05 08:25:33;;;;;;;5.22;4.82;;;;;;;;;;10522072;28;20173;-76
2022/08/05 08:30:34;;;;;;;4.88;4.57;;;;;;;;;;10504165;28;20342;-75
2022/08/05 08:35:36;;;;;;;4.53;4.13;;;;;;;;;;10532709;28;20178;-75
2022/08/05 08:40:37;;;;;;;4.65;4.38;;;;;;;;;;10533900;28;20216;-76
2022/08/05 08:45:38;;;;;;;4.20;4.00;;;;;;;;;;10532329;28;20182;-75
2022/08/05 08:50:41;;;;;;;4.05;3.95;;;;;;;;;;10507982;28;20276;-75
2022/08/05 08:55:42;;;;;;;3.90;3.70;;;;;;;;;;10494949;28;20846;-75
2022/08/05 09:00:43;;;;;;;4.90;3.83;;;;;;;;;;10524869;28;20213;-76
2022/08/05 09:05:45;;;;;;;4.63;4.40;;;;;;;;;;10515629;28;20185;-75
2022/08/05 09:10:47;;;;;;;3.92;3.78;;;;;;;;;;10530041;28;20336;-76
2022/08/05 09:15:48;;;;;;;3.58;3.38;;;;;;;;;;10502480;28;20201;-75
2022/08/05 09:20:50;;;;;;;3.42;3.22;;;;;;;;;;10501759;28;20221;-68
2022/08/05 09:25:53;;;;;;;4.20;4.00;;;;;;;;;;10522622;28;20619;-75
2022/08/05 09:31:03;;;;;;;3.85;3.65;;;;;;;;;;10528254;28;20220;-75
2022/08/05 09:36:05;;;;;;;3.35;3.25;;;;;;;;;;10532408;28;20877;-76
2022/08/05 09:41:08;;;;;;;3.13;3.03;;;;;;;;;;10509268;28;20250;-75
2022/08/05 09:46:23;;;;;;;4.50;4.20;;;;;;;;;;10525714;28;20189;-75
2022/08/05 09:51:36;;;;;;;2.38;2.28;;;;;;;;;;10528713;28;20222;-75
2022/08/05 09:56:38;;;;;;;2.63;2.53;;;;;;;;;;10516659;28;20194;-73
2022/08/05 10:01:45;;;;;;;2.55;2.45;;;;;;;;;;10455004;28;20212;-74
2022/08/05 10:06:56;;;;;;;2.70;2.60;;;;;;;;;;10443519;28;20685;-75
2022/08/05 10:12:07;;;;;;;2.60;2.50;;;;;;;;;;10459712;28;20218;-75
2022/08/05 10:17:13;;;;;;;3.00;2.90;;;;;;;;;;10449341;28;20183;-75
2022/08/05 10:22:15;;;;;;;2.55;2.45;;;;;;;;;;10476596;28;20232;-75
2022/08/05 10:27:16;;;;;;;2.78;2.67;;;;;;;;;;10467474;28;20248;-75
2022/08/05 10:32:17;;;;;;;2.17;2.08;;;;;;;;;;10475896;28;20716;-75
2022/08/05 10:37:18;;;;;;;2.00;1.90;;;;;;;;;;10464756;28;20217;-75
2022/08/05 10:42:22;;;;;;;2.30;2.20;;;;;;;;;;10458951;28;20593;-75
2022/08/05 10:47:30;;;;;;;1.67;1.65;;;;;;;;;;10485409;28;20724;-74
2022/08/05 10:52:40;;;;;;;1.70;1.70;;;;;;;;;;10484382;28;20222;-76
2022/08/05 10:57:42;;;;;;;1.33;1.33;;;;;;;;;;10466216;28;20744;-78
2022/08/05 11:02:58;;;;;;;2.45;1.40;;;;;;;;;;10481519;28;20247;-76
2022/08/05 11:08:01;;;;;;;1.50;1.50;;;;;;;;;;10483253;28;20206;-76
2022/08/05 11:13:03;;;;;;;1.60;1.50;;;;;;;;;;10466517;28;20210;-78
2022/08/05 11:18:13;;;;;;;1.42;1.42;;;;;;;;;;10461441;28;20599;-76
2022/08/05 11:23:32;;;;;;;1.55;1.55;;;;;;;;;;10483795;28;20210;-78
2022/08/05 11:28:33;;;;;;;1.65;1.65;;;;;;;;;;10462706;28;20733;-67
2022/08/05 11:33:35;;;;;;;0.93;0.93;;;;;;;;;;10477426;28;20245;-77
2022/08/05 11:38:42;;;;;;;0.90;0.90;;;;;;;;;;10445047;28;20209;-77
2022/08/05 11:43:52;;;;;;;0.98;0.98;;;;;;;;;;10440924;28;20234;-78
2022/08/05 11:48:53;;;;;;;1.23;1.23;;;;;;;;;;10485584;28;20222;-75
2022/08/05 11:53:55;;;;;;;0.98;0.98;;;;;;;;;;10477512;28;20228;-75
2022/08/05 11:58:57;;;;;;;1.20;1.20;;;;;;;;;;10490616;28;20213;-77
2022/08/05 12:03:58;;;;;;;3.03;2.92;;;;;;;;;;10463955;28;20292;-74
2022/08/05 12:08:59;;;;;;;3.20;3.03;;;;;;;;;;10488276;28;20214;-72
2022/08/05 12:14:05;;;;;;;3.08;2.97;;;;;;;;;;10483750;28;20329;-73
2022/08/05 12:19:07;;;;;;;4.28;4.00;;;;;;;;;;10456195;28;20217;-74
2022/08/05 12:24:16;;;;;;;4.13;3.92;;;;;;;;;;10490198;28;20206;-76
2022/08/05 12:29:18;;;;;;;4.22;3.85;;;;;;;;;;10479650;28;20734;-74
2022/08/05 12:34:27;;;;;;;3.78;3.67;;;;;;;;;;10478773;28;20248;-76
2022/08/05 12:39:28;;;;;;;3.60;3.50;;;;;;;;;;10447839;28;20812;-76
2022/08/05 12:44:30;;;;;;;3.08;2.88;;;;;;;;;;10476083;28;20231;-73
2022/08/05 12:49:44;;;;;;;3.80;3.50;;;;;;;;;;10472895;28;20645;-73
2022/08/05 12:54:47;;;;;;;2.95;2.85;;;;;;;;;;10474962;28;20218;-70
2022/08/05 12:59:49;;;;;;;3.03;2.92;;;;;;;;;;10481032;28;20962;-74
2022/08/05 13:04:51;;;;;;;2.47;2.38;;;;;;;;;;10473944;28;20267;-72
2022/08/05 13:09:53;;;;;;;2.17;2.17;;;;;;;;;;10476831;28;20218;-74
2022/08/05 13:15:00;;;;;;;2.55;2.35;;;;;;;;;;10451287;28;20211;-73
2022/08/05 13:20:14;;;;;;;1.90;1.80;;;;;;;;;;10452409;28;20222;-73
2022/08/05 13:25:16;;;;;;;3.30;2.67;;;;;;;;;;10473676;28;20182;-74
2022/08/05 13:30:20;;;;;;;2.63;2.47;;;;;;;;;;10486954;28;20584;-75
2022/08/05 13:35:21;;;;;;;2.92;2.80;;;;;;;;;;10449647;28;20182;-76
2022/08/05 13:40:22;;;;;;;3.05;2.95;;;;;;;;;;10478674;28;20217;-73
2022/08/05 13:45:23;;;;;;;3.00;3.00;;;;;;;;;;10463615;28;20190;-75
2022/08/05 13:50:24;;;;;;;3.20;3.10;;;;;;;;;;10485721;28;20292;-77
2022/08/05 13:55:25;;;;;;;4.20;3.97;;;;;;;;;;10478460;28;20190;-74
2022/08/05 14:00:26;;;;;;;4.32;4.07;;;;;;;;;;10481938;28;20221;-75
2022/08/05 14:05:28;;;;;;;3.75;3.58;;;;;;;;;;10480850;28;20179;-73
2022/08/05 14:10:29;;;;;;;3.13;3.00;;;;;;;;;;10476949;28;20767;-75
2022/08/05 14:15:30;;;;;;;3.83;3.63;;;;;;;;;;10458396;28;20317;-75
2022/08/05 14:20:31;;;;;;;1.58;1.58;;;;;;;;;;10477472;28;20234;-76
2022/08/05 14:25:35;;;;;;;0.65;0.65;;;;;;;;;;10456010;28;20243;-73
2022/08/05 14:30:37;;;;;;;3.13;0.50;;;;;;;;;;10481389;28;20234;-75
2022/08/05 14:35:38;;;;;;;0.43;0.43;;;;;;;;;;10480101;28;20314;-72
2022/08/05 14:40:39;;;;;;;0.40;0.40;;;;;;;;;;10480025;28;20227;-73
2022/08/05 14:45:41;;;;;;;0.43;0.43;;;;;;;;;;10474840;28;20313;-74
2022/08/05 14:50:42;;;;;;;0.50;0.50;;;;;;;;;;10467578;28;20271;-77
2022/08/05 14:55:43;;;;;;;0.60;0.60;;;;;;;;;;10476081;28;20214;-74
2022/08/05 15:00:44;;;;;;;0.52;0.52;;;;;;;;;;10472912;28;20242;-73
2022/08/05 15:05:46;;;;;;;0.75;0.75;;;;;;;;;;10475171;28;20207;-76
2022/08/05 15:10:47;;;;;;;0.77;0.77;;;;;;;;;;10477648;28;20253;-74
2022/08/05 15:15:48;;;;;;;0.70;0.70;;;;;;;;;;10477384;28;20210;-74
2022/08/05 15:20:50;;;;;;;0.60;0.60;;;;;;;;;;10479963;28;20664;-77
2022/08/05 15:25:51;;;;;;;0.70;0.70;;;;;;;;;;10457538;28;20219;-74
2022/08/05 15:30:52;;;;;;;1.38;0.50;;;;;;;;;;10481496;28;20253;-74
2022/08/05 15:35:54;;;;;;;0.40;0.40;;;;;;;;;;10480975;28;20289;-75
2022/08/05 15:40:55;;;;;;;0.52;0.50;;;;;;;;;;10455567;28;20210;-72
2022/08/05 15:45:56;;;;;;;0.40;0.40;;;;;;;;;;10468974;28;20216;-72
2022/08/05 15:50:57;;;;;;;0.32;0.32;;;;;;;;;;10469426;28;20226;-72
2022/08/05 15:55:58;;;;;;;0.50;0.50;;;;;;;;;;10469679;28;20297;-74
2022/08/05 16:01:01;;;;;;;0.40;0.40;;;;;;;;;;10454872;28;20226;-77
2022/08/05 16:06:02;;;;;;;0.95;0.50;;;;;;;;;;10482169;28;20213;-74
2022/08/05 16:11:05;;;;;;;0.50;0.50;;;;;;;;;;10476388;28;20218;-77
2022/08/05 16:16:06;;;;;;;0.40;0.40;;;;;;;;;;10453974;28;20273;-77
2022/08/05 16:21:07;;;;;;;0.40;0.40;;;;;;;;;;10491286;28;20209;-78
2022/08/05 16:26:09;;;;;;;0.70;0.70;;;;;;;;;;10493870;28;20214;-78
2022/08/05 16:31:10;;;;;;;0.45;0.45;;;;;;;;;;10491435;28;20240;-76
2022/08/05 16:36:11;;;;;;;0.40;0.40;;;;;;;;;;10497948;28;20213;-79
2022/08/05 16:41:12;;;;;;;0.57;0.57;;;;;;;;;;10470719;28;20298;-78
2022/08/05 16:46:13;;;;;;;0.50;0.50;;;;;;;;;;10488373;28;20355;-77
2022/08/05 16:51:15;;;;;;;0.50;0.50;;;;;;;;;;10492615;28;20367;-77
2022/08/05 16:56:16;;;;;;;1.08;0.50;;;;;;;;;;10489511;28;20213;-75
2022/08/05 17:01:17;;;;;;;0.75;0.50;;;;;;;;;;10458836;28;20610;-73
2022/08/05 17:06:18;;;;;;;0.50;0.50;;;;;;;;;;10479647;28;20214;-76
2022/08/05 17:11:20;;;;;;;0.47;0.47;;;;;;;;;;10481508;28;20218;-80
2022/08/05 17:16:21;;;;;;;0.40;0.40;;;;;;;;;;10456196;28;20240;-81
2022/08/05 17:21:22;;;;;;;0.50;0.50;;;;;;;;;;10471614;28;20867;-76
2022/08/05 17:26:24;;;;;;;0.40;0.40;;;;;;;;;;10482502;28;20232;-79
2022/08/05 17:31:25;;;;;;;0.40;0.40;;;;;;;;;;10476876;28;20221;-78
2022/08/05 17:36:26;;;;;;;0.30;0.30;;;;;;;;;;10473080;28;20221;-77
2022/08/05 17:41:27;;;;;;;0.40;0.40;;;;;;;;;;10482002;28;20599;-79
2022/08/05 17:46:30;;;;;;;0.45;0.45;;;;;;;;;;10491187;28;20628;-78
2022/08/05 17:51:32;;;;;;;0.50;0.50;;;;;;;;;;10465861;28;20271;-77
2022/08/05 17:56:33;;;;;;;0.50;0.50;;;;;;;;;;10489464;28;20771;-78
2022/08/05 18:01:34;;;;;;;0.40;0.40;;;;;;;;;;10481219;28;20217;-78
2022/08/05 18:06:35;;;;;;;0.50;0.50;;;;;;;;;;10481629;28;20699;-75
2022/08/05 18:11:37;;;;;;;0.50;0.50;;;;;;;;;;10458840;28;20222;-75
2022/08/05 18:16:38;;;;;;;0.40;0.40;;;;;;;;;;10481674;28;20707;-75
2022/08/05 18:21:39;;;;;;;0.50;0.50;;;;;;;;;;10473560;28;20221;-71
2022/08/05 18:26:40;;;;;;;0.85;0.50;;;;;;;;;;10478599;28;20202;-81
2022/08/05 18:31:41;;;;;;;0.50;0.50;;;;;;;;;;10450057;28;20267;-73
2022/08/05 18:36:42;;;;;;;0.50;0.50;;;;;;;;;;10468873;28;20229;-73
2022/08/05 18:41:44;;;;;;;1.13;0.50;;;;;;;;;;10474250;28;20706;-69
2022/08/05 18:46:45;;;;;;;0.40;0.40;;;;;;;;;;10469906;28;20225;-75
2022/08/05 18:57:08;;;;;;;0.50;0.50;;;;;;;;;;10481577;28;20202;-77
2022/08/05 19:02:09;;;;;;;0.57;0.57;;;;;;;;;;10474545;28;20219;-75
2022/08/05 19:07:10;;;;;;;0.50;0.50;;;;;;;;;;10461937;28;20595;-74
2022/08/05 19:12:11;;;;;;;0.50;0.50;;;;;;;;;;10495070;28;20727;-79
2022/08/05 19:17:13;;;;;;;0.63;0.40;;;;;;;;;;10497136;28;20225;-76
2022/08/05 19:22:14;;;;;;;0.50;0.50;;;;;;;;;;10482854;28;20719;-75
2022/08/05 19:27:15;;;;;;;0.40;0.40;;;;;;;;;;10472668;28;20769;-74
2022/08/05 19:32:16;;;;;;;0.40;0.40;;;;;;;;;;10461481;28;20210;-73
2022/08/05 19:37:17;;;;;;;0.70;0.70;;;;;;;;;;10484840;28;20222;-79
2022/08/05 19:42:19;;;;;;;0.50;0.50;;;;;;;;;;10497910;28;20304;-76
2022/08/05 19:47:20;;;;;;;0.52;0.52;;;;;;;;;;10494390;28;20237;-73
2022/08/05 19:52:21;;;;;;;0.60;0.60;;;;;;;;;;10488377;28;20225;-72
2022/08/05 19:57:22;;;;;;;0.52;0.52;;;;;;;;;;10476838;28;20214;-75
2022/08/05 20:02:23;;;;;;;0.63;0.63;;;;;;;;;;10461338;28;20221;-76
2022/08/05 20:07:24;;;;;;;1.33;0.90;;;;;;;;;;10493945;28;20208;-75
2022/08/05 20:12:26;;;;;;;0.68;0.68;;;;;;;;;;10483823;28;21013;-74
2022/08/05 20:17:27;;;;;;;0.60;0.60;;;;;;;;;;10486589;28;20217;-74
2022/08/05 20:22:29;;;;;;;0.63;0.63;;;;;;;;;;10483748;28;20217;-75
2022/08/05 20:27:30;;;;;;;0.77;0.77;;;;;;;;;;10462974;28;20295;-75
2022/08/05 20:32:31;;;;;;;4.97;0.82;;;;;;;;;;10484738;28;20732;-74
2022/08/05 20:37:32;;;;;;;0.80;0.80;;;;;;;;;;10486888;28;20209;-74
2022/08/05 20:42:33;;;;;;;0.70;0.70;;;;;;;;;;10486233;28;20240;-74
2022/08/05 20:47:34;;;;;;;0.75;0.75;;;;;;;;;;10476165;28;20237;-74
2022/08/05 20:52:37;;;;;;;0.90;0.90;;;;;;;;;;10488700;28;20300;-74
2022/08/05 20:57:38;;;;;;;0.73;0.73;;;;;;;;;;10488247;28;20210;-75
2022/08/05 21:02:39;;;;;;;1.05;1.05;;;;;;;;;;10470608;28;21089;-76
2022/08/05 21:07:40;;;;;;;0.95;0.95;;;;;;;;;;10460770;28;20272;-75
2022/08/05 21:12:41;;;;;;;0.70;0.70;;;;;;;;;;10489555;28;20357;-76
2022/08/05 21:17:43;;;;;;;1.20;0.50;;;;;;;;;;10486281;28;20244;-75
2022/08/05 21:22:44;;;;;;;0.57;0.57;;;;;;;;;;10489554;28;20226;-74
2022/08/05 21:27:45;;;;;;;0.43;0.43;;;;;;;;;;10463205;28;20258;-73
2022/08/05 21:32:47;;;;;;;0.45;0.45;;;;;;;;;;10480498;28;20228;-74
2022/08/05 21:37:48;;;;;;;0.77;0.77;;;;;;;;;;10478203;28;20225;-75
2022/08/05 21:42:49;;;;;;;0.50;0.50;;;;;;;;;;10485630;28;20213;-73
2022/08/05 21:47:50;;;;;;;1.10;0.70;;;;;;;;;;10490018;28;21010;-74
2022/08/05 21:52:51;;;;;;;0.40;0.40;;;;;;;;;;10481842;28;20792;-74
2022/08/05 21:57:52;;;;;;;0.30;0.30;;;;;;;;;;10449309;28;20206;-73
2022/08/05 22:02:53;;;;;;;0.20;0.20;;;;;;;;;;10483411;28;20252;-74
2022/08/05 22:07:54;;;;;;;0.40;0.30;;;;;;;;;;10484957;28;20301;-75
2022/08/05 22:12:56;;;;;;;0.20;0.20;;;;;;;;;;10463399;28;21713;-74
2022/08/05 22:17:57;;;;;;;0.20;0.20;;;;;;;;;;10482395;28;20214;-75
2022/08/05 22:28:18;;;;;;;0.20;0.20;;;;;;;;;;10489296;28;20585;-74
2022/08/05 22:33:19;;;;;;;0.10;0.10;;;;;;;;;;10485378;28;20271;-74
2022/08/05 22:38:20;;;;;;;0.20;0.20;;;;;;;;;;10434750;28;20213;-74
2022/08/05 22:43:22;;;;;;;0.30;0.20;;;;;;;;;;10492982;28;20205;-75
2022/08/05 22:48:23;;;;;;;0.20;0.20;;;;;;;;;;10482654;28;20222;-75
2022/08/05 22:53:24;;;;;;;0.20;0.20;;;;;;;;;;10484950;28;20223;-74
2022/08/05 22:58:25;;;;;;;0.28;0.20;;;;;;;;;;10489794;28;20202;-75
2022/08/05 23:03:26;;;;;;;0.55;0.20;;;;;;;;;;10480738;28;20718;-74
2022/08/05 23:08:27;;;;;;;0.17;0.17;;;;;;;;;;10482375;28;20213;-75
2022/08/05 23:13:28;;;;;;;0.43;0.20;;;;;;;;;;10484543;28;20217;-74
2022/08/05 23:18:29;;;;;;;0.20;0.20;;;;;;;;;;10477134;28;20222;-74
2022/08/05 23:23:30;;;;;;;0.20;0.20;;;;;;;;;;10482101;28;20214;-73
2022/08/05 23:28:31;;;;;;;0.20;0.20;;;;;;;;;;10483287;28;20214;-73
2022/08/05 23:33:32;;;;;;;0.10;0.10;;;;;;;;;;10479896;28;20221;-74
2022/08/05 23:38:33;;;;;;;0.20;0.20;;;;;;;;;;10483162;28;20791;-74
2022/08/05 23:43:34;;;;;;;0.20;0.20;;;;;;;;;;10490298;28;20218;-74
2022/08/05 23:48:35;;;;;;;0.90;0.30;;;;;;;;;;10485824;28;20225;-74
2022/08/05 23:53:36;;;;;;;0.20;0.20;;;;;;;;;;10485501;28;20586;-74
2022/08/05 23:58:37;;;;;;;0.10;0.10;;;;;;;;;;10493961;28;20249;-74
